RU-0483 weather

Padinskoye Airstrip
Padinskoye, Russia

Public forecast

Using degrees Celsius for public forecast. Weather courtesy of forecast.io.

Closest aviation weather report (METAR) to Padinskoye Airstrip

Closest report is Mineralnyye Vody Airport, 37.5 nm (69.4 km) S. Retrieved 2020/07/08 11:30 UTC (17 minutes ago):

URMM 081130Z 30013G18MPS 9000 -TSRA BKN018CB 24/18 Q1006 R30/190160 TEMPO VRB10G23MPS 0100 +TSRAGR SCT001 BKN030CB RMK MT OBSC QFE726/0969

Closest aviation forecast (TAF) to Padinskoye Airstrip

Closest forecast is Mineralnyye Vody Airport, 37.5 nm (69.4 km) S. Retrieved 2020/07/08 09:21 UTC (2 hours ago):

TAF URMM 080800Z 0809/0909 30006G14MPS 9999 SCT030 TX32/0812Z TN16/0902Z TEMPO 0809/0909 VRB08G18MPS -TSRAGR BKN016 BKN030CB